createdAt,value
2023-02-18T00:02:30.914Z,99082.66
2023-02-18T00:05:52.141Z,99079.97
2023-02-18T00:09:24.949Z,99080.78
2023-02-18T00:12:41.239Z,99072.69
2023-02-18T00:15:54.810Z,99080.22
2023-02-18T00:19:14.743Z,99082.38
2023-02-18T00:22:23.862Z,99079.94
2023-02-18T00:25:33.141Z,99082.09
2023-02-18T00:28:42.123Z,99092.88
2023-02-18T00:32:03.875Z,99085.88
2023-02-18T00:35:18.012Z,99085.38
2023-02-18T00:38:32.571Z,99077.81
2023-02-18T00:41:42.123Z,99061.94
2023-02-18T00:44:59.974Z,99048.22
2023-02-18T00:48:17.259Z,99051.97
2023-02-18T00:51:36.346Z,99044.72
2023-02-18T00:55:08.066Z,99036.09
2023-02-18T00:58:29.830Z,99029.88
2023-02-18T01:01:42.526Z,99035.25
2023-02-18T01:05:06.658Z,99035.53
2023-02-18T01:08:38.368Z,99035.53
2023-02-18T01:12:03.638Z,99037.94
2023-02-18T01:15:38.764Z,99043.06
2023-02-18T01:18:54.007Z,99034.44
2023-02-18T01:35:24.569Z,99021.47
2023-02-18T06:50:02.969Z,98958.09
2023-02-18T06:57:05.234Z,98959.19
2023-02-18T07:00:49.826Z,98953.56
2023-02-18T07:04:15.570Z,98967.03
2023-02-18T07:07:33.461Z,98967.06
2023-02-18T07:11:00.744Z,98955.00
2023-02-18T07:35:29.343Z,98936.19
2023-02-18T07:42:38.697Z,98926.25
2023-02-18T07:49:32.825Z,98924.38
2023-02-18T07:53:11.270Z,98916.59
2023-02-18T07:56:39.116Z,98921.19
2023-02-18T08:33:58.435Z,98924.94
2023-02-18T08:37:21.946Z,98911.50
2023-02-18T08:41:26.309Z,98910.72
2023-02-18T08:58:37.072Z,98900.16
2023-02-18T09:07:08.321Z,98899.34
2023-02-18T09:11:10.966Z,98904.72
2023-02-18T09:34:58.598Z,98888.84
2023-02-18T09:46:50.694Z,98878.69
2023-02-18T09:51:11.940Z,98870.03
2023-02-18T09:54:42.676Z,98866.69
2023-02-18T10:05:35.427Z,98861.03
2023-02-18T10:17:13.466Z,98873.66
2023-02-18T10:21:41.409Z,98873.94
2023-02-18T10:25:22.007Z,98872.63
2023-02-18T10:29:12.005Z,98873.72
2023-02-18T10:51:07.472Z,98848.91
2023-02-18T22:26:15.183Z,98822.38
